Time;durP1;ratioP1;P1;durP2;ratioP2;P2;SDS_P1;SDS_P2;PMS_P1;PMS_P2;Temp;Humidity;BMP_temperature;BMP_pressure;BME280_temperature;BME280_humidity;BME280_pressure;Samples;Min_cycle;Max_cycle;Signal;HPM_P1;HPM_P2
2021/01/09 00:01:02;;;;;;;46.67;25.00;;;;;;;2.08;100.00;100625.91;5118524;28;20522;-35
2021/01/09 00:03:48;;;;;;;43.33;25.50;;;;;;;1.98;100.00;100633.25;5118485;28;20292;-35
2021/01/09 00:06:38;;;;;;;41.73;24.00;;;;;;;2.21;100.00;100637.34;5117295;28;20509;-33
2021/01/09 00:09:24;;;;;;;40.87;24.07;;;;;;;2.09;100.00;100642.09;5118184;28;20475;-35
2021/01/09 00:12:11;;;;;;;41.40;24.60;;;;;;;2.27;100.00;100642.66;5118061;28;20736;-37
2021/01/09 00:15:00;;;;;;;42.27;24.60;;;;;;;2.36;100.00;100637.84;5117996;28;20198;-35
2021/01/09 00:17:47;;;;;;;46.10;24.10;;;;;;;2.13;100.00;100648.16;5117666;28;20198;-35
2021/01/09 00:20:33;;;;;;;42.10;24.83;;;;;;;2.29;100.00;100650.38;5118338;28;20308;-32
2021/01/09 00:23:20;;;;;;;43.07;24.87;;;;;;;2.33;100.00;100652.19;5117334;28;20206;-36
2021/01/09 00:26:06;;;;;;;42.97;26.30;;;;;;;2.46;100.00;100651.75;5117436;28;20287;-34
2021/01/09 00:28:52;;;;;;;42.00;25.07;;;;;;;2.67;100.00;100654.06;5117913;28;20686;-35
2021/01/09 00:31:47;;;;;;;47.73;26.23;;;;;;;2.34;100.00;100666.69;5117884;28;20201;-33
2021/01/09 00:34:35;;;;;;;41.53;24.77;;;;;;;2.52;100.00;100667.25;5117371;28;20198;-34
2021/01/09 00:37:27;;;;;;;44.70;25.97;;;;;;;2.58;100.00;100658.91;5117532;28;20194;-35
2021/01/09 00:40:24;;;;;;;43.07;26.23;;;;;;;2.41;100.00;100672.00;5117373;28;20225;-35
2021/01/09 00:43:15;;;;;;;39.40;23.83;;;;;;;2.76;100.00;100667.13;5117874;28;20198;-34
2021/01/09 00:46:03;;;;;;;43.03;24.57;;;;;;;2.44;100.00;100673.81;5117513;28;20230;-38
2021/01/09 00:48:51;;;;;;;44.77;24.63;;;;;;;2.57;100.00;100672.50;5117601;28;20202;-38
2021/01/09 00:51:38;;;;;;;42.57;24.60;;;;;;;2.69;100.00;100667.75;5117572;28;20294;-36
2021/01/09 00:54:36;;;;;;;44.87;24.00;;;;;;;2.85;100.00;100674.16;5117342;28;20616;-38
2021/01/09 00:57:26;;;;;;;40.07;24.27;;;;;;;2.65;100.00;100682.09;5117327;28;20194;-34
2021/01/09 01:00:12;;;;;;;38.03;23.23;;;;;;;2.43;100.00;100687.38;5117550;28;20565;-38
2021/01/09 01:02:59;;;;;;;39.23;23.47;;;;;;;2.42;100.00;100689.06;5117310;28;20198;-33
2021/01/09 01:05:49;;;;;;;44.30;23.10;;;;;;;2.84;100.00;100690.31;5117395;28;20624;-36
2021/01/09 01:08:38;;;;;;;37.27;21.17;;;;;;;2.79;100.00;100690.19;5117534;28;20326;-35
2021/01/09 01:11:27;;;;;;;40.20;23.13;;;;;;;2.61;100.00;100693.03;5117587;28;20238;-37
2021/01/09 01:14:14;;;;;;;44.93;24.93;;;;;;;2.26;100.00;100688.53;5117504;28;20340;-37
2021/01/09 01:17:00;;;;;;;39.50;23.90;;;;;;;2.03;100.00;100701.44;5117532;28;20195;-39
2021/01/09 01:19:46;;;;;;;39.57;25.30;;;;;;;2.25;100.00;100705.53;5117615;28;20344;-36
2021/01/09 01:22:32;;;;;;;42.37;23.93;;;;;;;2.66;100.00;100708.50;5117252;28;20263;-33
2021/01/09 01:25:18;;;;;;;42.87;23.60;;;;;;;2.33;100.00;100700.69;5117407;28;20247;-35
2021/01/09 01:28:04;;;;;;;42.00;24.33;;;;;;;2.52;100.00;100704.69;5117136;28;20194;-37
2021/01/09 01:30:52;;;;;;;40.40;23.27;;;;;;;2.84;100.00;100706.50;5118389;28;20198;-35
2021/01/09 01:33:38;;;;;;;50.03;25.00;;;;;;;2.55;100.00;100715.00;5121106;28;20604;-33
2021/01/09 01:36:25;;;;;;;45.53;24.20;;;;;;;2.47;100.00;100712.19;5122056;28;20593;-35
2021/01/09 01:39:11;;;;;;;49.63;24.90;;;;;;;2.27;100.00;100709.00;5121463;28;20202;-35
2021/01/09 01:41:58;;;;;;;49.50;26.10;;;;;;;2.20;100.00;100717.28;5120998;28;20214;-36
2021/01/09 01:44:44;;;;;;;45.27;25.53;;;;;;;2.32;100.00;100717.69;5121368;28;20202;-39
2021/01/09 01:47:34;;;;;;;47.87;26.13;;;;;;;2.58;100.00;100721.06;5121165;28;20222;-37
2021/01/09 01:50:21;;;;;;;45.57;25.10;;;;;;;2.56;100.00;100725.25;5121379;28;20198;-35
2021/01/09 01:53:07;;;;;;;50.07;27.87;;;;;;;2.56;100.00;100726.94;5121300;28;20293;-35
2021/01/09 01:55:54;;;;;;;50.30;26.87;;;;;;;2.65;100.00;100725.53;5120944;28;20703;-39
2021/01/09 01:58:40;;;;;;;46.53;25.97;;;;;;;2.63;100.00;100728.84;5120870;28;20259;-36
2021/01/09 02:01:26;;;;;;;51.50;27.57;;;;;;;2.62;100.00;100730.53;5120965;28;20195;-36
2021/01/09 02:04:13;;;;;;;47.97;27.60;;;;;;;2.89;100.00;100737.31;5121062;28;20197;-36
2021/01/09 02:07:05;;;;;;;51.43;27.70;;;;;;;2.52;100.00;100743.84;5120646;28;20221;-33
2021/01/09 02:09:56;;;;;;;50.27;27.43;;;;;;;2.55;100.00;100740.53;5120344;28;20197;-35
2021/01/09 02:12:48;;;;;;;46.63;26.17;;;;;;;2.58;100.00;100738.94;5120581;28;20198;-36
2021/01/09 02:15:35;;;;;;;49.87;28.80;;;;;;;2.34;100.00;100746.69;5120804;28;20484;-37
2021/01/09 02:18:25;;;;;;;56.23;28.70;;;;;;;2.31;100.00;100745.72;5120163;28;20279;-36
2021/01/09 02:21:21;;;;;;;53.87;30.20;;;;;;;2.21;100.00;100748.78;5120583;28;20482;-35
2021/01/09 02:24:17;;;;;;;56.60;31.30;;;;;;;2.30;100.00;100755.06;5120529;28;20321;-32
2021/01/09 02:27:03;;;;;;;54.63;30.20;;;;;;;2.22;100.00;100750.50;5120409;28;20218;-36
2021/01/09 02:29:54;;;;;;;56.90;30.87;;;;;;;2.32;100.00;100750.00;5120023;28;20282;-37
2021/01/09 02:32:48;;;;;;;56.63;30.97;;;;;;;2.33;100.00;100759.41;5120200;28;20198;-36
2021/01/09 02:35:35;;;;;;;61.90;31.07;;;;;;;2.06;100.00;100756.78;5120321;28;20203;-36
2021/01/09 02:38:21;;;;;;;57.80;30.07;;;;;;;2.56;100.00;100752.47;5119860;28;20206;-39
2021/01/09 02:41:09;;;;;;;59.53;32.23;;;;;;;2.15;100.00;100762.22;5120005;28;20194;-35
2021/01/09 02:44:05;;;;;;;52.93;28.87;;;;;;;2.71;100.00;100761.47;5119977;28;20612;-35
2021/01/09 02:46:51;;;;;;;63.60;32.17;;;;;;;2.31;100.00;100768.69;5119915;28;20225;-34
2021/01/09 02:49:37;;;;;;;61.30;31.03;;;;;;;2.34;100.00;100768.78;5119615;28;20194;-33
2021/01/09 02:52:23;;;;;;;64.73;33.63;;;;;;;2.34;100.00;100772.22;5119751;28;20224;-38
2021/01/09 02:55:10;;;;;;;58.17;30.73;;;;;;;2.58;100.00;100766.16;5119971;28;20213;-38
2021/01/09 02:57:57;;;;;;;54.77;29.37;;;;;;;2.76;100.00;100769.28;5119927;28;20295;-36
2021/01/09 03:00:43;;;;;;;55.57;29.13;;;;;;;2.85;100.00;100776.34;5119051;28;20195;-38
2021/01/09 03:03:29;;;;;;;61.90;31.43;;;;;;;2.61;100.00;100772.19;5119623;28;20238;-38
2021/01/09 03:06:16;;;;;;;52.40;28.50;;;;;;;2.95;100.00;100778.38;5119736;28;20629;-35
2021/01/09 03:09:02;;;;;;;57.37;30.30;;;;;;;2.89;100.00;100790.94;5119281;28;20217;-34
2021/01/09 03:11:48;;;;;;;56.63;29.90;;;;;;;2.80;100.00;100793.25;5119199;28;20491;-34
2021/01/09 03:14:36;;;;;;;56.07;28.83;;;;;;;2.77;100.00;100794.00;5119823;28;20218;-35
2021/01/09 03:17:24;;;;;;;56.80;30.73;;;;;;;2.32;100.00;100793.41;5119384;28;20202;-37
2021/01/09 03:20:12;;;;;;;59.27;27.63;;;;;;;2.34;100.00;100792.63;5119394;28;20198;-38
2021/01/09 03:22:59;;;;;;;66.53;31.37;;;;;;;2.20;100.00;100793.00;5119176;28;20371;-36
2021/01/09 03:25:45;;;;;;;56.23;30.53;;;;;;;2.39;100.00;100796.22;5119082;28;20194;-38
2021/01/09 03:28:31;;;;;;;62.60;32.07;;;;;;;1.99;100.00;100794.00;5119082;28;20290;-38
2021/01/09 03:31:18;;;;;;;61.90;31.43;;;;;;;2.13;100.00;100786.81;5119447;28;20194;-37
2021/01/09 03:34:04;;;;;;;71.27;34.47;;;;;;;1.91;100.00;100803.06;5118923;28;20477;-38
2021/01/09 03:36:50;;;;;;;62.73;30.30;;;;;;;2.08;100.00;100791.75;5118498;28;20206;-36
2021/01/09 03:39:37;;;;;;;67.87;30.97;;;;;;;2.02;100.00;100786.44;5118524;28;20195;-35
2021/01/09 03:42:23;;;;;;;69.30;32.47;;;;;;;1.94;100.00;100787.00;5119195;28;20657;-36
2021/01/09 03:45:09;;;;;;;63.07;31.50;;;;;;;2.15;100.00;100792.84;5118890;28;20195;-38
2021/01/09 03:47:57;;;;;;;67.67;31.67;;;;;;;1.92;100.00;100794.59;5119037;28;20542;-33
2021/01/09 03:50:43;;;;;;;68.93;31.93;;;;;;;1.64;100.00;100787.66;5118361;28;20194;-34
2021/01/09 03:53:29;;;;;;;63.03;31.10;;;;;;;2.04;100.00;100786.50;5117904;28;20220;-35
2021/01/09 03:56:15;;;;;;;67.67;32.10;;;;;;;2.05;100.00;100785.69;5118889;28;20629;-38
2021/01/09 03:59:00;;;;;;;67.83;32.60;;;;;;;1.96;100.00;100781.16;5118147;28;20369;-38
2021/01/09 04:01:47;;;;;;;73.53;34.60;;;;;;;2.04;100.00;100782.25;5118532;28;20195;-36
2021/01/09 04:04:34;;;;;;;68.80;33.17;;;;;;;1.92;100.00;100778.44;5118306;28;20202;-37
2021/01/09 04:07:20;;;;;;;69.73;33.37;;;;;;;2.01;100.00;100783.81;5118631;28;20280;-38
2021/01/09 04:10:07;;;;;;;76.60;32.87;;;;;;;2.05;100.00;100778.88;5118757;28;20469;-36
2021/01/09 04:12:54;;;;;;;74.37;34.07;;;;;;;1.63;100.00;100793.56;5077746;28;20204;-38
2021/01/09 04:15:39;;;;;;;75.30;34.90;;;;;;;1.60;100.00;100792.63;5077681;28;20200;-34
2021/01/09 04:18:25;;;;;;;64.80;31.57;;;;;;;1.95;100.00;100792.16;5077965;28;20625;-33
2021/01/09 04:21:12;;;;;;;74.80;32.83;;;;;;;2.19;100.00;100798.91;5077394;28;20208;-39
2021/01/09 04:24:00;;;;;;;65.67;31.57;;;;;;;2.07;100.00;100794.25;5077993;28;20227;-37
2021/01/09 04:26:52;;;;;;;65.73;30.67;;;;;;;2.21;100.00;100798.13;5077369;28;20373;-36
2021/01/09 04:29:41;;;;;;;72.67;33.50;;;;;;;2.20;100.00;100798.94;5077494;28;20207;-36
2021/01/09 04:32:29;;;;;;;67.43;32.13;;;;;;;2.08;100.00;100798.53;5077339;28;20199;-39
2021/01/09 04:35:16;;;;;;;76.00;33.23;;;;;;;2.00;100.00;100805.91;5077612;28;20300;-36
2021/01/09 04:38:03;;;;;;;81.17;34.60;;;;;;;1.68;100.00;100802.25;5077195;28;20196;-36
2021/01/09 04:40:49;;;;;;;69.27;31.63;;;;;;;1.92;100.00;100803.94;5077267;28;20490;-32
2021/01/09 04:43:35;;;;;;;62.07;29.13;;;;;;;2.16;100.00;100802.22;5077520;28;20595;-36
2021/01/09 04:46:23;;;;;;;65.87;30.77;;;;;;;1.73;100.00;100803.28;5077395;28;20317;-35
2021/01/09 04:49:10;;;;;;;64.77;30.70;;;;;;;1.75;100.00;100811.00;5077386;28;20200;-33
2021/01/09 04:51:57;;;;;;;65.03;29.70;;;;;;;1.75;100.00;100810.13;5076988;28;20342;-37
2021/01/09 04:54:46;;;;;;;66.63;30.77;;;;;;;1.49;100.00;100815.16;5077124;28;20195;-35
2021/01/09 04:57:33;;;;;;;71.30;32.20;;;;;;;1.49;100.00;100820.25;5077269;28;20477;-36
2021/01/09 05:00:21;;;;;;;73.20;32.63;;;;;;;1.67;100.00;100809.84;5077551;28;20198;-34
2021/01/09 05:03:08;;;;;;;79.57;32.60;;;;;;;1.50;100.00;100811.78;5077035;28;20659;-33
2021/01/09 05:05:55;;;;;;;78.10;33.30;;;;;;;1.49;100.00;100819.38;5078194;28;20249;-33
2021/01/09 05:08:41;;;;;;;63.90;29.50;;;;;;;1.89;100.00;100814.03;5081328;28;20322;-35
2021/01/09 05:11:31;;;;;;;69.70;31.13;;;;;;;2.21;100.00;100821.09;5102235;28;20245;-36
2021/01/09 05:14:19;;;;;;;73.83;30.50;;;;;;;2.06;100.00;100820.56;5121815;28;20238;-40
2021/01/09 05:17:05;;;;;;;75.30;31.83;;;;;;;1.71;100.00;100827.88;5122020;28;20194;-35
2021/01/09 05:19:52;;;;;;;69.93;31.60;;;;;;;1.72;100.00;100823.63;5122088;28;20301;-36
2021/01/09 05:22:39;;;;;;;80.93;34.87;;;;;;;1.30;100.00;100833.13;5121497;28;20198;-36
2021/01/09 05:25:27;;;;;;;83.60;34.93;;;;;;;1.43;100.00;100830.22;5121723;28;20198;-37
2021/01/09 05:28:15;;;;;;;76.03;33.53;;;;;;;1.91;100.00;100831.13;5121855;28;20383;-37
2021/01/09 05:31:02;;;;;;;74.73;33.70;;;;;;;1.95;100.00;100824.44;5121719;28;20638;-37
2021/01/09 05:33:50;;;;;;;87.13;33.10;;;;;;;1.85;100.00;100828.34;5121475;28;20507;-35
2021/01/09 05:36:36;;;;;;;86.63;36.43;;;;;;;1.71;100.00;100825.31;5121282;28;20248;-37
2021/01/09 05:39:22;;;;;;;88.23;35.40;;;;;;;1.88;100.00;100835.25;5121319;28;20198;-34
2021/01/09 05:42:09;;;;;;;81.23;34.33;;;;;;;1.99;100.00;100832.28;5120857;28;20198;-36
2021/01/09 05:44:57;;;;;;;109.10;39.47;;;;;;;1.58;100.00;100842.69;5121198;28;20198;-38
2021/01/09 05:47:45;;;;;;;97.37;38.43;;;;;;;1.71;100.00;100832.09;5119917;28;20225;-34
2021/01/09 05:50:32;;;;;;;86.47;35.17;;;;;;;1.56;100.00;100842.63;5121041;28;20198;-34
2021/01/09 05:53:37;;;;;;;95.73;34.93;;;;;;;1.64;100.00;100846.28;5120261;28;20552;-36
2021/01/09 05:56:24;;;;;;;122.10;39.20;;;;;;;1.48;100.00;100838.91;5120560;28;20198;-35
2021/01/09 05:59:10;;;;;;;175.17;42.83;;;;;;;1.52;100.00;100845.84;5120907;28;20492;-32
2021/01/09 06:01:59;;;;;;;95.70;39.07;;;;;;;1.75;100.00;100845.84;5120755;28;20193;-35
2021/01/09 06:04:49;;;;;;;165.23;44.30;;;;;;;1.46;100.00;100852.41;5121298;28;20590;-36
2021/01/09 06:07:37;;;;;;;220.30;46.17;;;;;;;1.11;100.00;100844.28;5120192;28;20300;-35
2021/01/09 06:10:25;;;;;;;291.40;54.20;;;;;;;1.00;100.00;100859.16;5119765;28;20469;-37
2021/01/09 06:13:13;;;;;;;108.77;40.57;;;;;;;1.39;100.00;100853.88;5120435;28;20546;-39
2021/01/09 06:16:05;;;;;;;128.33;42.00;;;;;;;1.38;100.00;100852.13;5119865;28;20194;-34
2021/01/09 06:18:53;;;;;;;115.47;40.97;;;;;;;1.54;100.00;100856.97;5119925;28;20290;-37
2021/01/09 06:21:40;;;;;;;101.40;38.33;;;;;;;1.93;100.00;100859.25;5120212;28;20216;-36
2021/01/09 06:24:26;;;;;;;159.03;44.30;;;;;;;1.31;100.00;100852.69;5120638;28;20215;-33
2021/01/09 06:27:18;;;;;;;236.27;44.40;;;;;;;1.45;100.00;100848.09;5120298;28;20226;-35
2021/01/09 06:30:09;;;;;;;284.47;49.93;;;;;;;1.34;100.00;100847.72;5120249;28;20225;-35
2021/01/09 06:32:59;;;;;;;288.10;45.00;;;;;;;1.45;100.00;100858.31;5120199;28;20343;-39
2021/01/09 06:35:48;;;;;;;256.93;47.03;;;;;;;1.34;100.00;100853.69;5120454;28;20203;-34
2021/01/09 06:38:34;;;;;;;232.43;42.47;;;;;;;1.59;100.00;100857.16;5120369;28;20207;-37
2021/01/09 06:41:23;;;;;;;248.40;47.10;;;;;;;1.81;100.00;100848.59;5119576;28;20198;-34
2021/01/09 06:44:13;;;;;;;393.80;49.00;;;;;;;1.26;100.00;100849.97;5120188;28;20264;-34
2021/01/09 06:46:59;;;;;;;350.03;47.10;;;;;;;1.33;100.00;100861.28;5119475;28;20633;-34
2021/01/09 06:49:47;;;;;;;262.80;39.83;;;;;;;1.15;100.00;100858.91;5120031;28;20206;-34
2021/01/09 06:53:05;;;;;;;166.30;38.40;;;;;;;1.47;100.00;100859.25;5119905;28;20478;-34
2021/01/09 06:55:56;;;;;;;359.67;44.00;;;;;;;1.31;100.00;100856.13;5119653;28;20200;-36
2021/01/09 06:58:51;;;;;;;189.10;37.00;;;;;;;1.48;100.00;100858.44;5119524;28;20198;-34
2021/01/09 07:01:38;;;;;;;410.60;54.23;;;;;;;1.16;100.00;100864.88;5119741;28;20705;-37
2021/01/09 07:04:48;;;;;;;262.87;38.37;;;;;;;1.42;100.00;100874.34;5119527;28;20320;-37
2021/01/09 07:07:52;;;;;;;245.07;41.30;;;;;;;1.23;100.00;100884.66;5119580;28;20639;-37
2021/01/09 07:10:56;;;;;;;464.60;60.80;;;;;;;0.82;100.00;100886.44;5118851;28;20647;-38
2021/01/09 07:14:16;;;;;;;325.27;43.90;;;;;;;0.76;100.00;100896.38;5119736;28;20210;-39
2021/01/09 07:17:11;;;;;;;281.43;38.97;;;;;;;0.90;100.00;100902.03;5119383;28;20199;-36
2021/01/09 07:19:58;;;;;;;390.67;48.53;;;;;;;0.94;100.00;100904.78;5119020;28;20198;-34
2021/01/09 07:22:49;;;;;;;395.07;48.87;;;;;;;0.70;100.00;100903.75;5119284;28;20285;-37
2021/01/09 07:25:38;;;;;;;221.70;40.07;;;;;;;0.98;100.00;100906.63;5119360;28;20202;-36
2021/01/09 07:28:25;;;;;;;390.57;52.70;;;;;;;0.58;100.00;100913.44;5118289;28;20230;-36
2021/01/09 07:31:20;;;;;;;356.90;47.33;;;;;;;0.75;100.00;100909.91;5119139;28;20199;-39
2021/01/09 07:34:12;;;;;;;261.57;41.27;;;;;;;1.05;100.00;100902.63;5119351;28;20202;-39
2021/01/09 07:37:00;;;;;;;248.60;39.13;;;;;;;1.22;100.00;100913.47;5119081;28;20275;-38
2021/01/09 07:39:56;;;;;;;276.70;42.17;;;;;;;0.72;100.00;100914.88;5119154;28;20307;-36
2021/01/09 07:42:42;;;;;;;185.27;38.73;;;;;;;0.96;100.00;100912.47;5119043;28;20436;-33
2021/01/09 07:45:33;;;;;;;332.97;46.40;;;;;;;0.87;100.00;100909.53;5118801;28;20539;-37
2021/01/09 07:48:20;;;;;;;244.63;44.40;;;;;;;1.13;100.00;100913.13;5118349;28;20226;-32
2021/01/09 07:51:06;;;;;;;145.43;37.50;;;;;;;1.36;100.00;100920.00;5118966;28;20468;-37
2021/01/09 07:53:53;;;;;;;225.60;47.60;;;;;;;1.21;100.00;100914.28;5118723;28;20533;-33
2021/01/09 07:56:39;;;;;;;168.27;38.40;;;;;;;1.10;100.00;100926.63;5118180;28;20565;-34
2021/01/09 07:59:26;;;;;;;197.13;44.67;;;;;;;1.24;100.00;100916.97;5118754;28;20199;-37
2021/01/09 08:02:12;;;;;;;166.40;38.43;;;;;;;1.34;100.00;100927.59;5118775;28;20294;-36
2021/01/09 08:05:05;;;;;;;265.07;45.17;;;;;;;1.17;100.00;100932.84;5118071;28;20348;-33
2021/01/09 08:07:52;;;;;;;210.37;41.50;;;;;;;1.05;100.00;100935.75;5118014;28;20222;-37
2021/01/09 08:10:38;;;;;;;224.43;41.53;;;;;;;0.74;100.00;100936.19;5117932;28;20419;-37
2021/01/09 08:13:25;;;;;;;212.27;42.77;;;;;;;0.60;100.00;100942.38;5118403;28;20202;-36
2021/01/09 08:16:11;;;;;;;323.73;57.63;;;;;;;0.54;100.00;100937.03;5118068;28;20588;-35
2021/01/09 08:19:14;;;;;;;160.17;41.73;;;;;;;1.01;100.00;100964.44;5117724;28;20436;-33
2021/01/09 08:22:04;;;;;;;348.27;53.73;;;;;;;0.82;100.00;100959.41;5117493;28;20235;-32
2021/01/09 08:24:51;;;;;;;158.07;38.07;;;;;;;1.11;100.00;100952.97;5116914;28;20214;-34
2021/01/09 08:27:45;;;;;;;357.67;56.67;;;;;;;0.69;100.00;100947.84;5116788;28;20222;-37
2021/01/09 08:30:32;;;;;;;166.80;43.30;;;;;;;0.79;100.00;100949.13;5117593;28;20294;-35
2021/01/09 08:33:19;;;;;;;414.00;68.60;;;;;;;0.99;100.00;100959.31;5117001;28;20198;-36
2021/01/09 08:36:05;;;;;;;99.67;36.17;;;;;;;1.31;100.00;100954.63;5117491;28;20206;-38
2021/01/09 08:38:55;;;;;;;195.23;46.33;;;;;;;1.49;100.00;100965.53;5117201;28;20202;-38
2021/01/09 08:41:42;;;;;;;94.10;36.10;;;;;;;1.62;100.00;100969.41;5116957;28;20467;-39
2021/01/09 08:44:28;;;;;;;120.73;39.43;;;;;;;1.79;100.00;100981.16;5117713;28;20214;-36
2021/01/09 08:47:26;;;;;;;142.73;38.67;;;;;;;1.87;100.00;100983.97;5117157;28;20619;-37
2021/01/09 08:50:19;;;;;;;138.93;38.43;;;;;;;1.23;100.00;100984.88;5109345;28;20603;-36
2021/01/09 08:53:07;;;;;;;117.30;35.73;;;;;;;1.80;100.00;100993.06;5117500;28;20279;-36
2021/01/09 08:56:11;;;;;;;106.80;37.83;;;;;;;1.78;100.00;101010.03;5117564;28;20194;-41
2021/01/09 08:59:02;;;;;;;321.17;54.80;;;;;;;1.35;100.00;101004.91;5117422;28;20190;-38
2021/01/09 09:01:51;;;;;;;95.40;35.03;;;;;;;1.83;100.00;101002.53;5117779;28;20502;-37
2021/01/09 09:04:41;;;;;;;139.80;40.17;;;;;;;1.60;100.00;101007.59;5116988;28;20295;-37
2021/01/09 09:07:33;;;;;;;187.13;45.77;;;;;;;1.16;100.00;101004.97;5116957;28;20299;-37
2021/01/09 09:10:19;;;;;;;96.23;34.33;;;;;;;1.29;100.00;101002.09;5116717;28;20222;-34
2021/01/09 09:13:23;;;;;;;99.83;34.13;;;;;;;1.73;100.00;101003.88;5116711;28;20255;-35
2021/01/09 09:16:16;;;;;;;93.30;33.30;;;;;;;1.84;100.00;101015.34;5116566;28;20202;-35
2021/01/09 09:19:11;;;;;;;122.30;37.40;;;;;;;1.68;100.00;101013.00;5116818;28;20376;-33
2021/01/09 09:21:58;;;;;;;73.03;32.73;;;;;;;2.03;100.00;101012.69;5116600;28;20284;-38
2021/01/09 09:24:45;;;;;;;114.33;36.10;;;;;;;2.36;100.00;101023.28;5116021;28;20194;-34
2021/01/09 09:27:33;;;;;;;72.60;34.13;;;;;;;2.39;100.00;101020.84;5116662;28;20556;-35
2021/01/09 09:30:26;;;;;;;81.40;32.90;;;;;;;2.55;100.00;101019.72;5116821;28;20494;-36
2021/01/09 09:33:13;;;;;;;108.93;35.47;;;;;;;2.60;100.00;101025.00;5116547;28;20198;-36
2021/01/09 09:36:07;;;;;;;162.13;36.90;;;;;;;1.97;100.00;101027.78;5116710;28;20302;-35
2021/01/09 09:38:56;;;;;;;88.57;33.03;;;;;;;1.97;100.00;101020.13;5116731;28;20556;-33
2021/01/09 09:41:53;;;;;;;108.50;37.90;;;;;;;1.36;100.00;101022.81;5115266;28;20484;-36
2021/01/09 09:44:41;;;;;;;65.43;31.40;;;;;;;1.44;100.00;101010.34;5096440;28;20203;-35
2021/01/09 09:47:28;;;;;;;79.37;34.00;;;;;;;1.92;100.00;101008.00;5096568;28;20372;-36
2021/01/09 09:50:35;;;;;;;128.03;36.33;;;;;;;1.89;100.00;101005.31;5096274;28;20214;-36
2021/01/09 09:53:23;;;;;;;235.57;40.83;;;;;;;1.75;100.00;101009.91;5098927;28;20261;-40
2021/01/09 09:56:16;;;;;;;384.03;64.67;;;;;;;2.02;100.00;101005.84;5099652;28;20603;-34
2021/01/09 09:59:04;;;;;;;72.73;30.57;;;;;;;2.56;100.00;101011.25;5099597;28;20199;-36
2021/01/09 10:01:57;;;;;;;65.83;31.43;;;;;;;2.96;100.00;101013.50;5100001;28;20207;-35
2021/01/09 10:04:47;;;;;;;76.90;32.53;;;;;;;2.46;100.00;101015.94;5099706;28;20241;-37
2021/01/09 10:07:39;;;;;;;63.33;29.40;;;;;;;2.88;100.00;101012.34;5099848;28;20219;-36
2021/01/09 10:10:25;;;;;;;73.43;32.90;;;;;;;2.25;100.00;101021.13;5099290;28;20349;-39
2021/01/09 10:13:11;;;;;;;67.40;30.30;;;;;;;2.69;100.00;101021.06;5099479;28;20203;-36
2021/01/09 10:15:57;;;;;;;62.17;28.03;;;;;;;1.86;100.00;101023.94;5100013;28;20581;-36
2021/01/09 10:18:43;;;;;;;54.03;27.60;;;;;;;2.32;100.00;101028.22;5099590;28;20280;-36
2021/01/09 10:21:31;;;;;;;65.83;30.77;;;;;;;2.34;100.00;101030.00;5101131;28;20215;-40
2021/01/09 10:24:17;;;;;;;58.30;26.77;;;;;;;2.28;100.00;101021.25;5099776;28;20206;-37
2021/01/09 10:27:04;;;;;;;53.70;27.43;;;;;;;2.53;100.00;101031.53;5099786;28;20215;-38
2021/01/09 10:29:57;;;;;;;52.77;25.07;;;;;;;3.05;100.00;101026.56;5099267;28;20203;-38
2021/01/09 10:32:43;;;;;;;47.03;24.83;;;;;;;3.25;100.00;101026.34;5099463;28;20488;-34
2021/01/09 10:35:32;;;;;;;46.23;24.83;;;;;;;2.78;100.00;101025.63;5099864;28;20625;-35
2021/01/09 10:38:19;;;;;;;56.37;26.77;;;;;;;2.37;100.00;101022.47;5099319;28;20341;-40
2021/01/09 10:41:05;;;;;;;52.00;27.03;;;;;;;2.74;100.00;101024.66;5098349;28;20256;-40
2021/01/09 10:43:54;;;;;;;50.40;25.07;;;;;;;3.15;100.00;101012.41;5098842;28;20199;-37
2021/01/09 10:46:40;;;;;;;49.93;25.80;;;;;;;2.73;100.00;101016.94;5098471;28;20191;-37
2021/01/09 10:49:26;;;;;;;51.30;26.07;;;;;;;2.74;100.00;101005.91;5099111;28;20299;-40
2021/01/09 10:52:12;;;;;;;48.97;25.43;;;;;;;3.20;100.00;101003.19;5098707;28;20214;-34
2021/01/09 10:55:00;;;;;;;50.27;24.73;;;;;;;3.00;100.00;101001.66;5098924;28;20602;-38
2021/01/09 10:57:47;;;;;;;38.50;22.27;;;;;;;3.59;100.00;101005.31;5099084;28;20226;-35
2021/01/09 11:00:33;;;;;;;45.60;25.23;;;;;;;3.49;100.00;101003.28;5099196;28;20341;-35
2021/01/09 11:03:19;;;;;;;35.73;21.30;;;;;;;3.36;100.00;100999.47;5096786;28;20199;-35
2021/01/09 11:06:06;;;;;;;42.60;24.77;;;;;;;3.61;100.00;101004.50;5098464;28;20194;-35
2021/01/09 11:08:52;;;;;;;41.20;22.87;;;;;;;3.60;100.00;101002.78;5098664;28;20604;-39
2021/01/09 11:11:39;;;;;;;38.53;21.80;;;;;;;3.45;100.00;101002.31;5098496;28;20715;-36
2021/01/09 11:14:26;;;;;;;39.77;22.27;;;;;;;3.21;100.00;100991.28;5098520;28;20196;-37
2021/01/09 11:17:13;;;;;;;34.17;20.87;;;;;;;3.05;100.00;101000.13;5098305;28;20194;-40
2021/01/09 11:19:59;;;;;;;36.63;21.93;;;;;;;3.27;100.00;101001.72;5097818;28;20344;-33
2021/01/09 11:22:45;;;;;;;34.80;20.07;;;;;;;3.36;100.00;100992.66;5097665;28;20199;-35
2021/01/09 11:25:32;;;;;;;35.83;21.23;;;;;;;3.38;100.00;100990.16;5098422;28;20495;-36
2021/01/09 11:28:21;;;;;;;35.30;20.97;;;;;;;3.52;100.00;100982.91;5097618;28;20600;-39
2021/01/09 11:31:10;;;;;;;32.43;20.77;;;;;;;3.88;100.00;100984.03;5097185;28;20197;-40
2021/01/09 11:33:59;;;;;;;36.13;21.30;;;;;;;3.19;100.00;100986.16;5097035;28;20608;-38
2021/01/09 11:36:45;;;;;;;37.73;21.20;;;;;;;2.92;100.00;100978.44;5097239;28;20208;-37
2021/01/09 11:39:32;;;;;;;36.57;21.77;;;;;;;3.56;100.00;100988.19;5097785;28;20474;-35
2021/01/09 11:42:18;;;;;;;36.97;21.03;;;;;;;3.48;100.00;100981.94;5097263;28;20324;-37
2021/01/09 11:45:05;;;;;;;32.77;20.17;;;;;;;3.63;100.00;100984.09;5097807;28;20207;-38
2021/01/09 11:47:52;;;;;;;33.97;19.87;;;;;;;3.30;100.00;100987.34;5097546;28;20227;-36
2021/01/09 11:50:38;;;;;;;32.83;19.83;;;;;;;3.49;100.00;100982.81;5096705;28;20199;-39
2021/01/09 11:53:37;;;;;;;31.93;21.40;;;;;;;3.57;100.00;100984.81;5097437;28;20587;-36
2021/01/09 11:56:24;;;;;;;32.23;19.17;;;;;;;3.56;100.00;100988.19;5097128;28;20204;-34
2021/01/09 11:59:10;;;;;;;29.97;18.80;;;;;;;3.62;100.00;100982.38;5096539;28;20242;-37
2021/01/09 12:01:57;;;;;;;32.10;19.70;;;;;;;3.35;100.00;100979.84;5096947;28;20198;-35
2021/01/09 12:04:46;;;;;;;32.53;19.30;;;;;;;3.48;100.00;100979.38;5097346;28;20211;-35
2021/01/09 12:07:32;;;;;;;28.30;17.57;;;;;;;3.35;100.00;100979.84;5095049;28;20223;-37
2021/01/09 12:10:19;;;;;;;32.23;19.13;;;;;;;3.69;100.00;100984.31;5096286;28;20200;-34
2021/01/09 12:13:06;;;;;;;28.13;18.40;;;;;;;3.36;100.00;100979.88;5097240;28;20203;-38
2021/01/09 12:15:54;;;;;;;29.87;18.77;;;;;;;3.54;100.00;100984.72;5095776;28;20204;-36
2021/01/09 12:18:41;;;;;;;27.40;17.70;;;;;;;3.49;100.00;100973.47;5095691;28;20196;-34
2021/01/09 12:21:30;;;;;;;28.03;18.53;;;;;;;4.13;100.00;100970.28;5096791;28;20286;-40
2021/01/09 12:24:17;;;;;;;30.70;20.07;;;;;;;4.05;100.00;100969.16;5096970;28;20273;-39
2021/01/09 12:27:04;;;;;;;31.20;19.70;;;;;;;4.03;100.00;100975.94;5096852;28;20271;-36
2021/01/09 12:29:50;;;;;;;29.00;18.70;;;;;;;4.27;100.00;100973.22;5096659;28;20262;-40
2021/01/09 12:32:36;;;;;;;27.73;19.73;;;;;;;4.42;100.00;100973.63;5096470;28;20714;-38
2021/01/09 12:35:24;;;;;;;29.50;19.83;;;;;;;4.05;100.00;100971.72;5096570;28;20297;-35
2021/01/09 12:38:15;;;;;;;29.63;19.70;;;;;;;4.13;100.00;100965.16;5096277;28;20201;-35
2021/01/09 12:41:02;;;;;;;31.17;19.90;;;;;;;3.94;100.00;100965.44;5096502;28;20280;-36
2021/01/09 12:43:48;;;;;;;29.97;21.13;;;;;;;4.09;100.00;100965.88;5096614;28;20197;-37